Welcome to Northern Hawkes Bay. New Zealand.
PWS Header
      nz Flag



Hit Counter


W3C Valid W3C Valid logo


    Wairoa

Select any of the Stations below to visit their websites.










Historic Data from Weather Underground
Select the location of interest below. Wairoa is the default. Please have patience, this Data is slow to load in.
Northern Hawkes Bay Historical Data
Daily Summary for January 21, 2017 Units:  Metric    English   Both
« Previous Day
Next Day »
Daily Weekly Monthly Yearly Custom
  High: Low: Average:
Temperature: 24.6 °C 7.2 °C 16.7 °C
Dew Point: 12.6 °C 6.7 °C 9.1 °C
Humidity: 97% 35% 65%
Wind Speed: 21.9km/h 0.0km/h 8.4km/h
Wind Gust: 41.7km/h - -
Wind- - SSW
Pressure: 1015.1 hPa 1006.3 hPa -
Precipitation: 0.0 mm    
Historical Graphs
 
 
Tabular Data for January 21, 2017
Time Temperature Dew Point Pressure Wind Wind Speed Wind Gust Humidity Rainfall Rate (Hourly) solar
00:03 10.3 °C 8.1 °C 1014.1 hPa NW 7.2 km/h 8.7 km/h 86% 0.0 mm 0 W/m2
00:08 10.4 °C 8.2 °C 1013.8 hPa NW 5.0 km/h 11.1 km/h 86% 0.0 mm 0 W/m2
00:13 10.3 °C 8.1 °C 1014.1 hPa NW 5.0 km/h 11.1 km/h 86% 0.0 mm 0 W/m2
00:18 10.2 °C 7.9 °C 1014.1 hPa NW 5.0 km/h 9.7 km/h 86% 0.0 mm 0 W/m2
00:23 10.1 °C 7.9 °C 1014.1 hPa NW 7.2 km/h 8.7 km/h 86% 0.0 mm 0 W/m2
00:28 10.1 °C 8.1 °C 1014.1 hPa NW 6.1 km/h 9.7 km/h 87% 0.0 mm 0 W/m2
00:33 10.1 °C 8.1 °C 1014.1 hPa NW 2.6 km/h 9.7 km/h 87% 0.0 mm 0 W/m2
00:38 10.1 °C 8.1 °C 1013.8 hPa NNW 3.5 km/h 8.7 km/h 87% 0.0 mm 0 W/m2
00:43 10.1 °C 8.1 °C 1013.8 hPa NNW 3.5 km/h 7.2 km/h 87% 0.0 mm 0 W/m2
00:48 10.1 °C 8.1 °C 1013.8 hPa NNW 3.5 km/h 7.2 km/h 87% 0.0 mm 0 W/m2
00:53 10.0 °C 7.9 °C 1014.1 hPa NW 5.0 km/h 7.2 km/h 87% 0.0 mm 0 W/m2
00:58 9.9 °C 8.0 °C 1013.8 hPa NW 2.6 km/h 7.2 km/h 88% 0.0 mm 0 W/m2
01:03 9.8 °C 7.9 °C 1014.1 hPa NW 3.5 km/h 7.2 km/h 88% 0.0 mm 0 W/m2
01:08 9.6 °C 7.9 °C 1014.1 hPa NW 6.1 km/h 9.7 km/h 89% 0.0 mm 0 W/m2
01:13 9.6 °C 7.9 °C 1014.1 hPa NW 5.0 km/h 9.7 km/h 89% 0.0 mm 0 W/m2
01:18 9.6 °C 8.1 °C 1014.1 hPa NNW 3.5 km/h 9.7 km/h 90% 0.0 mm 0 W/m2
01:23 9.4 °C 7.8 °C 1013.8 hPa NNW 5.0 km/h 8.7 km/h 90% 0.0 mm 0 W/m2
01:28 9.3 °C 7.7 °C 1013.8 hPa NW 3.5 km/h 7.2 km/h 90% 0.0 mm 0 W/m2
01:33 9.2 °C 7.7 °C 1013.8 hPa NW 5.0 km/h 7.2 km/h 90% 0.0 mm 0 W/m2
01:38 9.1 °C 7.7 °C 1013.8 hPa NW 6.1 km/h 8.7 km/h 91% 0.0 mm 0 W/m2
01:43 9.1 °C 7.7 °C 1013.8 hPa NW 5.0 km/h 8.7 km/h 91% 0.0 mm 0 W/m2
01:48 9.1 °C 7.9 °C 1013.8 hPa NNW 5.0 km/h 8.7 km/h 92% 0.0 mm 0 W/m2
01:53 9.0 °C 7.8 °C 1013.8 hPa NNW 5.0 km/h 8.7 km/h 92% 0.0 mm 0 W/m2
01:58 9.1 °C 7.9 °C 1013.4 hPa NNW 3.5 km/h 8.7 km/h 92% 0.0 mm 0 W/m2
02:03 9.1 °C 8.1 °C 1013.4 hPa NNW 3.5 km/h 11.1 km/h 93% 0.0 mm 0 W/m2
02:08 9.1 °C 8.1 °C 1013.4 hPa NW 5.0 km/h 11.1 km/h 93% 0.0 mm 0 W/m2
02:13 9.2 °C 8.1 °C 1013.4 hPa NNW 6.1 km/h 9.7 km/h 93% 0.0 mm 0 W/m2
02:18 9.2 °C 8.1 °C 1013.4 hPa NW 7.2 km/h 11.1 km/h 93% 0.0 mm 0 W/m2
02:23 9.1 °C 7.9 °C 1013.4 hPa NW 6.1 km/h 11.1 km/h 92% 0.0 mm 0 W/m2
02:28 8.9 °C 7.8 °C 1013.4 hPa NW 6.1 km/h 9.7 km/h 93% 0.0 mm 0 W/m2
02:33 8.8 °C 7.7 °C 1013.4 hPa NW 6.1 km/h 9.7 km/h 93% 0.0 mm 0 W/m2
02:38 8.7 °C 7.8 °C 1013.4 hPa NNW 5.0 km/h 8.7 km/h 94% 0.0 mm 0 W/m2
02:43 8.7 °C 7.8 °C 1013.4 hPa NNW 5.0 km/h 8.7 km/h 94% 0.0 mm 0 W/m2
02:48 8.7 °C 7.9 °C 1013.1 hPa NW 3.5 km/h 8.7 km/h 95% 0.0 mm 0 W/m2
02:53 8.6 °C 7.8 °C 1013.1 hPa NW 3.5 km/h 7.2 km/h 95% 0.0 mm 0 W/m2
02:58 8.5 °C 7.7 °C 1013.4 hPa NW 2.6 km/h 7.2 km/h 95% 0.0 mm 0 W/m2
03:03 8.5 °C 7.7 °C 1013.4 hPa NW 5.0 km/h 8.7 km/h 95% 0.0 mm 0 W/m2
03:08 8.6 °C 7.8 °C 1013.8 hPa NNW 5.0 km/h 11.1 km/h 95% 0.0 mm 0 W/m2
03:13 8.7 °C 8.1 °C 1013.4 hPa NNW 5.0 km/h 11.1 km/h 96% 0.0 mm 0 W/m2
03:18 8.8 °C 8.2 °C 1013.8 hPa NW 5.0 km/h 9.7 km/h 96% 0.0 mm 0 W/m2
03:23 8.8 °C 8.2 °C 1013.4 hPa NW 6.1 km/h 9.7 km/h 96% 0.0 mm 0 W/m2
03:28 8.8 °C 8.1 °C 1013.4 hPa NW 5.0 km/h 9.7 km/h 95% 0.0 mm 0 W/m2
03:33 8.7 °C 7.9 °C 1013.4 hPa NNW 2.6 km/h 8.7 km/h 95% 0.0 mm 0 W/m2
03:38 8.7 °C 7.9 °C 1013.4 hPa NNW 3.5 km/h 8.7 km/h 95% 0.0 mm 0 W/m2
03:43 8.6 °C 7.8 °C 1013.4 hPa NNW 2.6 km/h 6.1 km/h 95% 0.0 mm 0 W/m2
03:48 8.5 °C 7.7 °C 1013.4 hPa NNW 3.5 km/h 7.2 km/h 95% 0.0 mm 0 W/m2
03:53 8.4 °C 7.7 °C 1013.4 hPa NNW 3.5 km/h 7.2 km/h 95% 0.0 mm 0 W/m2
03:58 8.4 °C 7.7 °C 1013.4 hPa NNW 2.6 km/h 9.7 km/h 95% 0.0 mm 0 W/m2
04:03 8.3 °C 7.6 °C 1013.4 hPa NNW 2.6 km/h 9.7 km/h 95% 0.0 mm 0 W/m2
04:08 8.3 °C 7.6 °C 1013.8 hPa NW 5.0 km/h 6.1 km/h 95% 0.0 mm 0 W/m2
04:13 8.2 °C 7.6 °C 1013.8 hPa NNW 3.5 km/h 6.1 km/h 96% 0.0 mm 0 W/m2
04:33 8.0 °C 7.4 °C 1013.8 hPa North 2.6 km/h 6.1 km/h 96% 0.0 mm 0 W/m2
04:43 8.1 °C 7.5 °C 1013.8 hPa NNW 5.0 km/h 11.1 km/h 96% 0.0 mm 0 W/m2
04:48 8.1 °C 7.5 °C 1014.1 hPa NNW 6.1 km/h 11.1 km/h 96% 0.0 mm 0 W/m2
04:53 8.1 °C 7.5 °C 1014.1 hPa North 5.0 km/h 9.7 km/h 96% 0.0 mm 0 W/m2
04:58 8.1 °C 7.5 °C 1013.8 hPa North 6.1 km/h 8.7 km/h 96% 0.0 mm 0 W/m2
05:03 8.1 °C 7.5 °C 1014.1 hPa NNW 5.0 km/h 11.1 km/h 96% 0.0 mm 0 W/m2
05:08 8.1 °C 7.5 °C 1014.1 hPa NNW 5.0 km/h 11.1 km/h 96% 0.0 mm 0 W/m2
05:13 8.0 °C 7.4 °C 1014.1 hPa NNW 6.1 km/h 12.2 km/h 96% 0.0 mm 0 W/m2
05:18 8.0 °C 7.4 °C 1014.1 hPa NNW 6.1 km/h 13.4 km/h 96% 0.0 mm 0 W/m2
05:23 8.0 °C 7.4 °C 1014.1 hPa North 6.1 km/h 13.4 km/h 96% 0.0 mm 0 W/m2
05:28 8.0 °C 7.4 °C 1014.1 hPa NNW 7.2 km/h 12.2 km/h 96% 0.0 mm 0 W/m2
05:33 8.0 °C 7.4 °C 1014.1 hPa NW 7.2 km/h 12.2 km/h 96% 0.0 mm 0 W/m2
05:43 7.9 °C 7.3 °C 1014.1 hPa NNW 8.7 km/h 13.4 km/h 96% 0.0 mm 0 W/m2
05:49 7.8 °C 7.2 °C 1013.8 hPa NW 5.0 km/h 11.1 km/h 96% 0.0 mm 0 W/m2
05:54 7.7 °C 7.1 °C 1014.1 hPa NW 5.0 km/h 11.1 km/h 96% 0.0 mm 0 W/m2
05:59 7.6 °C 7.0 °C 1013.8 hPa NNW 3.5 km/h 9.7 km/h 96% 0.0 mm 0 W/m2
06:04 7.5 °C 6.9 °C 1014.1 hPa NNW 3.5 km/h 8.7 km/h 96% 0.0 mm 1 W/m2
06:09 7.4 °C 6.9 °C 1014.1 hPa NNW 5.0 km/h 8.7 km/h 97% 0.0 mm 4 W/m2
06:14 7.3 °C 6.8 °C 1013.8 hPa NNW 6.1 km/h 11.1 km/h 97% 0.0 mm 6 W/m2
06:19 7.2 °C 6.8 °C 1014.1 hPa NW 5.0 km/h 11.1 km/h 97% 0.0 mm 9 W/m2
06:24 7.3 °C 6.8 °C 1014.1 hPa NW 7.2 km/h 11.1 km/h 97% 0.0 mm 13 W/m2
06:29 7.4 °C 6.9 °C 1014.1 hPa NW 7.2 km/h 12.2 km/h 97% 0.0 mm 15 W/m2
06:34 7.5 °C 7.1 °C 1014.1 hPa NW 7.2 km/h 12.2 km/h 97% 0.0 mm 19 W/m2
06:39 7.7 °C 7.3 °C 1014.1 hPa NW 11.1 km/h 13.4 km/h 97% 0.0 mm 38 W/m2
06:44 8.0 °C 7.6 °C 1014.1 hPa NNW 5.0 km/h 13.4 km/h 97% 0.0 mm 53 W/m2
06:49 8.4 °C 7.9 °C 1014.4 hPa NNW 7.2 km/h 13.4 km/h 97% 0.0 mm 60 W/m2
06:54 8.7 °C 8.1 °C 1014.4 hPa NNW 7.2 km/h 12.2 km/h 96% 0.0 mm 66 W/m2
06:59 9.1 °C 8.1 °C 1014.4 hPa NNW 11.1 km/h 14.8 km/h 93% 0.0 mm 71 W/m2
07:04 9.2 °C 7.7 °C 1014.4 hPa NNW 9.7 km/h 14.8 km/h 90% 0.0 mm 77 W/m2
07:09 9.4 °C 7.5 °C 1014.4 hPa NNW 8.7 km/h 14.8 km/h 88% 0.0 mm 83 W/m2
07:14 9.5 °C 7.6 °C 1014.4 hPa NNW 7.2 km/h 13.4 km/h 88% 0.0 mm 93 W/m2
07:19 9.9 °C 7.8 °C 1014.8 hPa NNW 8.7 km/h 14.8 km/h 87% 0.0 mm 105 W/m2
07:24 10.1 °C 7.7 °C 1014.8 hPa NNW 8.7 km/h 14.8 km/h 85% 0.0 mm 118 W/m2
07:29 10.4 °C 8.0 °C 1014.8 hPa NNW 5.0 km/h 14.8 km/h 85% 0.0 mm 132 W/m2
07:34 10.6 °C 8.0 °C 1014.8 hPa NNW 8.7 km/h 14.8 km/h 84% 0.0 mm 144 W/m2
07:39 10.9 °C 8.1 °C 1014.8 hPa NW 8.7 km/h 12.2 km/h 83% 0.0 mm 159 W/m2
07:44 11.0 °C 7.9 °C 1015.1 hPa NW 8.7 km/h 14.8 km/h 81% 0.0 mm 170 W/m2
07:49 11.5 °C 8.3 °C 1014.8 hPa NNW 6.1 km/h 14.8 km/h 81% 0.0 mm 182 W/m2
07:54 11.7 °C 8.2 °C 1014.8 hPa NNW 7.2 km/h 12.2 km/h 79% 0.0 mm 195 W/m2
07:59 12.1 °C 8.4 °C 1014.8 hPa NNW 7.2 km/h 12.2 km/h 78% 0.0 mm 207 W/m2
08:04 12.5 °C 8.6 °C 1014.8 hPa NNW 7.2 km/h 11.1 km/h 77% 0.0 mm 220 W/m2
08:09 12.5 °C 8.2 °C 1014.8 hPa North 6.1 km/h 12.2 km/h 75% 0.0 mm 232 W/m2
08:14 12.7 °C 8.4 °C 1014.8 hPa North 6.1 km/h 12.2 km/h 75% 0.0 mm 245 W/m2
08:19 13.2 °C 8.9 °C 1014.8 hPa NNW 5.0 km/h 11.1 km/h 75% 0.0 mm 258 W/m2
08:24 13.7 °C 9.3 °C 1014.8 hPa NNW 6.1 km/h 11.1 km/h 75% 0.0 mm 274 W/m2
08:29 14.1 °C 9.3 °C 1014.8 hPa NW 7.2 km/h 11.1 km/h 73% 0.0 mm 287 W/m2
08:34 14.4 °C 9.2 °C 1014.8 hPa NW 7.2 km/h 11.1 km/h 71% 0.0 mm 302 W/m2
08:39 14.4 °C 9.2 °C 1014.8 hPa NW 6.1 km/h 12.2 km/h 71% 0.0 mm 315 W/m2
08:44 15.0 °C 9.6 °C 1014.8 hPa NNW 6.1 km/h 12.2 km/h 70% 0.0 mm 332 W/m2
08:49 15.6 °C 9.9 °C 1014.8 hPa NNW 6.1 km/h 12.2 km/h 69% 0.0 mm 350 W/m2
08:54 16.0 °C 9.7 °C 1014.8 hPa NNW 3.5 km/h 11.1 km/h 66% 0.0 mm 366 W/m2
08:59 16.7 °C 10.3 °C 1014.8 hPa North 5.0 km/h 9.7 km/h 66% 0.0 mm 386 W/m2
09:04 17.5 °C 10.4 °C 1014.8 hPa NNW 3.5 km/h 8.7 km/h 63% 0.0 mm 406 W/m2
09:09 18.2 °C 10.6 °C 1014.8 hPa NNW 3.5 km/h 9.7 km/h 61% 0.0 mm 429 W/m2
09:14 18.5 °C 10.6 °C 1014.8 hPa NNW 3.5 km/h 9.7 km/h 60% 0.0 mm 452 W/m2
09:19 19.0 °C 10.3 °C 1014.8 hPa NNW 1.1 km/h 11.1 km/h 57% 0.0 mm 469 W/m2
09:24 19.8 °C 10.8 °C 1014.8 hPa North 5.0 km/h 13.4 km/h 56% 0.0 mm 511 W/m2
09:29 20.0 °C 10.4 °C 1014.8 hPa North 6.1 km/h 13.4 km/h 54% 0.0 mm 569 W/m2
09:34 20.1 °C 10.8 °C 1014.8 hPa North 11.1 km/h 14.8 km/h 55% 0.0 mm 553 W/m2
09:39 20.0 °C 10.4 °C 1014.8 hPa North 7.2 km/h 15.8 km/h 54% 0.0 mm 562 W/m2
09:44 19.9 °C 10.6 °C 1015.1 hPa North 7.2 km/h 15.8 km/h 55% 0.0 mm 571 W/m2
09:49 20.0 °C 10.4 °C 1014.8 hPa NNW 7.2 km/h 18.3 km/h 54% 0.0 mm 572 W/m2
09:54 20.0 °C 10.2 °C 1014.8 hPa North 9.7 km/h 18.3 km/h 53% 0.0 mm 604 W/m2
09:59 20.0 °C 10.4 °C 1014.8 hPa North 12.2 km/h 17.2 km/h 54% 0.0 mm 626 W/m2
10:04 20.2 °C 10.3 °C 1014.8 hPa North 12.2 km/h 15.8 km/h 53% 0.0 mm 644 W/m2
10:09 20.4 °C 10.5 °C 1014.8 hPa NNW 8.7 km/h 17.2 km/h 53% 0.0 mm 674 W/m2
10:14 20.7 °C 10.5 °C 1014.8 hPa NNW 6.1 km/h 17.2 km/h 52% 0.0 mm 721 W/m2
10:19 21.0 °C 10.8 °C 1014.8 hPa North 7.2 km/h 13.4 km/h 52% 0.0 mm 783 W/m2
10:24 21.3 °C 10.2 °C 1014.8 hPa North 7.2 km/h 19.5 km/h 49% 0.0 mm 771 W/m2
10:29 22.1 °C 9.9 °C 1014.8 hPa North 5.0 km/h 19.5 km/h 46% 0.0 mm 498 W/m2
10:34 21.3 °C 9.8 °C 1014.8 hPa NW 8.7 km/h 15.8 km/h 48% 0.0 mm 359 W/m2
10:39 21.2 °C 10.1 °C 1014.8 hPa Calm   15.8 km/h 49% 0.0 mm 433 W/m2
10:44 21.8 °C 10.0 °C 1014.4 hPa NE 3.5 km/h 9.7 km/h 47% 0.0 mm 382 W/m2
10:49 21.5 °C 9.7 °C 1014.4 hPa North 2.6 km/h 13.4 km/h 47% 0.0 mm 601 W/m2
10:54 21.7 °C 10.2 °C 1014.1 hPa NNE 8.7 km/h 13.4 km/h 48% 0.0 mm 752 W/m2
10:59 21.9 °C 10.1 °C 1014.1 hPa NNE 5.0 km/h 14.8 km/h 47% 0.0 mm 736 W/m2
11:04 22.1 °C 10.3 °C 1013.8 hPa North 5.0 km/h 14.8 km/h 47% 0.0 mm 678 W/m2
11:09 22.7 °C 10.2 °C 1013.8 hPa NNE 3.5 km/h 14.8 km/h 45% 0.0 mm 320 W/m2
11:14 22.8 °C 10.3 °C 1013.8 hPa NE 9.7 km/h 15.8 km/h 45% 0.0 mm 679 W/m2
11:19 22.8 °C 10.3 °C 1013.4 hPa NNE 8.7 km/h 17.2 km/h 45% 0.0 mm 879 W/m2
11:24 23.4 °C 10.8 °C 1013.4 hPa NNE 2.6 km/h 17.2 km/h 45% 0.0 mm 355 W/m2
11:29 23.8 °C 11.2 °C 1013.4 hPa NNE 7.2 km/h 12.2 km/h 45% 0.0 mm 281 W/m2
11:34 22.8 °C 9.9 °C 1013.1 hPa NW 2.6 km/h 9.7 km/h 44% 0.0 mm 279 W/m2
11:39 23.4 °C 11.1 °C 1012.8 hPa West 2.6 km/h 9.7 km/h 46% 0.0 mm 212 W/m2
11:44 23.0 °C 10.4 °C 1012.8 hPa NW 2.6 km/h 5.0 km/h 45% 0.0 mm 391 W/m2
11:49 23.6 °C 11.7 °C 1012.8 hPa Calm   5.0 km/h 47% 0.0 mm 1075 W/m2
12:05 23.5 °C 11.9 °C 1012.4 hPa SSE 5.0 km/h 13.4 km/h 48% 0.0 mm 714 W/m2
12:10 23.9 °C 12.6 °C 1012.8 hPa South 7.2 km/h 9.7 km/h 49% 0.0 mm 530 W/m2
12:15 23.9 °C 11.9 °C 1013.1 hPa SSW 6.1 km/h 12.2 km/h 47% 0.0 mm 457 W/m2
12:21 22.9 °C 6.7 °C 1012.8 hPa NW 11.1 km/h 18.3 km/h 35% 0.0 mm 473 W/m2
12:26 23.1 °C 7.2 °C 1012.8 hPa North 5.0 km/h 18.3 km/h 36% 0.0 mm 398 W/m2
12:31 23.3 °C 7.8 °C 1012.8 hPa North 7.2 km/h 19.5 km/h 37% 0.0 mm 399 W/m2
12:36 23.3 °C 10.1 °C 1012.8 hPa NNW 8.7 km/h 19.5 km/h 43% 0.0 mm 362 W/m2
12:41 22.3 °C 10.8 °C 1012.8 hPa WNW 12.2 km/h 23.3 km/h 48% 0.0 mm 303 W/m2
12:46 21.6 °C 10.4 °C 1012.8 hPa WSW 6.1 km/h 23.3 km/h 49% 0.0 mm 344 W/m2
12:51 22.0 °C 10.2 °C 1013.1 hPa SSW 2.6 km/h 18.3 km/h 47% 0.0 mm 387 W/m2
12:56 22.3 °C 10.4 °C 1012.4 hPa SSE 7.2 km/h 8.7 km/h 47% 0.0 mm 319 W/m2
13:01 22.1 °C 9.9 °C 1012.8 hPa SE 6.1 km/h 17.2 km/h 46% 0.0 mm 296 W/m2
13:06 21.9 °C 9.1 °C 1012.4 hPa NNE 12.2 km/h 19.5 km/h 44% 0.0 mm 306 W/m2
13:11 22.4 °C 10.2 °C 1012.4 hPa NNW 3.5 km/h 19.5 km/h 46% 0.0 mm 297 W/m2
13:16 22.8 °C 8.5 °C 1012.4 hPa NNE 5.0 km/h 12.2 km/h 40% 0.0 mm 328 W/m2
13:21 22.9 °C 8.2 °C 1012.4 hPa NNE 11.1 km/h 21.9 km/h 39% 0.0 mm 397 W/m2
13:26 22.9 °C 8.2 °C 1012.1 hPa North 9.7 km/h 21.9 km/h 39% 0.0 mm 352 W/m2
13:42 23.7 °C 8.2 °C 1012.1 hPa NNE 15.8 km/h 20.9 km/h 37% 0.0 mm 763 W/m2
13:47 23.7 °C 8.2 °C 1012.1 hPa NNE 6.1 km/h 20.9 km/h 37% 0.0 mm 494 W/m2
13:52 23.7 °C 8.2 °C 1012.1 hPa NNE 6.1 km/h 21.9 km/h 37% 0.0 mm 424 W/m2
13:57 23.9 °C 8.3 °C 1011.7 hPa NNE 12.2 km/h 21.9 km/h 37% 0.0 mm 423 W/m2
14:02 23.7 °C 8.9 °C 1011.7 hPa North 9.7 km/h 20.9 km/h 39% 0.0 mm 494 W/m2
14:07 24.2 °C 7.8 °C 1011.7 hPa North 9.7 km/h 25.6 km/h 35% 0.0 mm 622 W/m2
14:12 24.3 °C 7.9 °C 1011.4 hPa NE 8.7 km/h 25.6 km/h 35% 0.0 mm 682 W/m2
14:17 24.6 °C 8.2 °C 1011.4 hPa NE 13.4 km/h 19.5 km/h 35% 0.0 mm 594 W/m2
14:22 24.5 °C 8.1 °C 1011.4 hPa NNE 8.7 km/h 19.5 km/h 35% 0.0 mm 578 W/m2
14:27 24.1 °C 7.7 °C 1011.4 hPa North 12.2 km/h 24.5 km/h 35% 0.0 mm 453 W/m2
14:32 23.5 °C 7.6 °C 1011.4 hPa NNW 6.1 km/h 24.5 km/h 36% 0.0 mm 472 W/m2
14:37 23.9 °C 8.3 °C 1011.4 hPa NNW 7.2 km/h 24.5 km/h 37% 0.0 mm 390 W/m2
14:42 24.1 °C 8.1 °C 1011.4 hPa NNE 12.2 km/h 17.2 km/h 36% 0.0 mm 398 W/m2
14:47 24.0 °C 8.0 °C 1011.4 hPa NNE 6.1 km/h 17.2 km/h 36% 0.0 mm 418 W/m2
14:52 23.8 °C 8.3 °C 1011.4 hPa North 7.2 km/h 23.3 km/h 37% 0.0 mm 364 W/m2
14:57 24.1 °C 8.1 °C 1011.4 hPa North 8.7 km/h 23.3 km/h 36% 0.0 mm 417 W/m2
15:02 24.1 °C 7.7 °C 1011.7 hPa NNE 8.7 km/h 19.5 km/h 35% 0.0 mm 426 W/m2
15:07 24.0 °C 7.6 °C 1011.4 hPa NE 9.7 km/h 21.9 km/h 35% 0.0 mm 452 W/m2
15:12 23.9 °C 8.3 °C 1011.4 hPa NNE 14.8 km/h 21.9 km/h 37% 0.0 mm 512 W/m2
15:17 23.9 °C 7.9 °C 1011.4 hPa North 11.1 km/h 23.3 km/h 36% 0.0 mm 434 W/m2
15:22 23.9 °C 8.3 °C 1011.4 hPa North 9.7 km/h 25.6 km/h 37% 0.0 mm 394 W/m2
15:27 23.7 °C 8.2 °C 1011.4 hPa NNE 11.1 km/h 25.6 km/h 37% 0.0 mm 262 W/m2
15:32 23.4 °C 8.7 °C 1011.4 hPa NNE 13.4 km/h 21.9 km/h 39% 0.0 mm 198 W/m2
15:37 23.1 °C 8.4 °C 1011.7 hPa NNE 8.7 km/h 21.9 km/h 39% 0.0 mm 155 W/m2
15:42 23.0 °C 9.1 °C 1011.4 hPa NNE 18.3 km/h 24.5 km/h 41% 0.0 mm 134 W/m2
15:47 22.6 °C 8.7 °C 1011.4 hPa North 17.2 km/h 24.5 km/h 41% 0.0 mm 133 W/m2
15:52 22.4 °C 8.9 °C 1011.1 hPa North 12.2 km/h 24.5 km/h 42% 0.0 mm 133 W/m2
15:57 22.5 °C 9.3 °C 1011.1 hPa NNE 9.7 km/h 24.5 km/h 43% 0.0 mm 132 W/m2
16:02 22.4 °C 9.2 °C 1010.7 hPa NNE 5.0 km/h 18.3 km/h 43% 0.0 mm 183 W/m2
16:07 22.5 °C 9.3 °C 1010.7 hPa NNE 12.2 km/h 27.0 km/h 43% 0.0 mm 247 W/m2
16:12 22.6 °C 9.7 °C 1011.1 hPa NNE 12.2 km/h 27.0 km/h 44% 0.0 mm 226 W/m2
16:17 22.6 °C 9.7 °C 1010.7 hPa NNE 13.4 km/h 28.0 km/h 44% 0.0 mm 259 W/m2
16:22 22.4 °C 9.9 °C 1010.7 hPa North 11.1 km/h 28.0 km/h 45% 0.0 mm 207 W/m2
16:27 22.1 °C 9.6 °C 1010.7 hPa NNW 11.1 km/h 28.0 km/h 45% 0.0 mm 178 W/m2
16:32 21.9 °C 10.1 °C 1010.7 hPa NW 17.2 km/h 28.0 km/h 47% 0.0 mm 171 W/m2
16:37 21.8 °C 10.0 °C 1010.7 hPa NW 12.2 km/h 28.0 km/h 47% 0.0 mm 162 W/m2
16:42 21.8 °C 10.0 °C 1010.7 hPa NNW 12.2 km/h 27.0 km/h 47% 0.0 mm 172 W/m2
16:48 21.8 °C 10.0 °C 1010.4 hPa NNW 12.2 km/h 27.0 km/h 47% 0.0 mm 250 W/m2
17:05 21.5 °C 9.7 °C 1009.7 hPa North 18.3 km/h 36.7 km/h 47% 0.0 mm 156 W/m2
17:10 21.4 °C 9.6 °C 1010.0 hPa North 13.4 km/h 28.0 km/h 47% 0.0 mm 155 W/m2
17:15 21.2 °C 9.8 °C 1010.0 hPa North 19.5 km/h 33.1 km/h 48% 0.0 mm 132 W/m2
17:20 21.0 °C 9.6 °C 1010.4 hPa NNW 12.2 km/h 33.1 km/h 48% 0.0 mm 91 W/m2
17:25 20.9 °C 9.8 °C 1010.4 hPa NNW 13.4 km/h 30.6 km/h 49% 0.0 mm 91 W/m2
17:30 20.8 °C 10.0 °C 1010.4 hPa NNW 9.7 km/h 31.7 km/h 50% 0.0 mm 95 W/m2
17:35 20.7 °C 9.9 °C 1010.7 hPa NW 13.4 km/h 31.7 km/h 50% 0.0 mm 74 W/m2
17:40 20.7 °C 9.9 °C 1010.7 hPa NNW 8.7 km/h 25.6 km/h 50% 0.0 mm 74 W/m2
17:45 20.6 °C 10.1 °C 1010.7 hPa North 11.1 km/h 23.3 km/h 51% 0.0 mm 65 W/m2
17:50 20.6 °C 10.1 °C 1010.7 hPa North 15.8 km/h 23.3 km/h 51% 0.0 mm 56 W/m2
17:55 20.5 °C 9.7 °C 1010.0 hPa North 18.3 km/h 24.5 km/h 50% 0.0 mm 48 W/m2
18:00 20.4 °C 9.7 °C 1010.4 hPa North 13.4 km/h 24.5 km/h 50% 0.0 mm 51 W/m2
18:05 20.3 °C 9.8 °C 1010.4 hPa NNW 11.1 km/h 27.0 km/h 51% 0.0 mm 54 W/m2
18:10 20.3 °C 9.8 °C 1010.4 hPa NNW 12.2 km/h 27.0 km/h 51% 0.0 mm 53 W/m2
18:15 20.3 °C 9.8 °C 1010.0 hPa North 8.7 km/h 19.5 km/h 51% 0.0 mm 48 W/m2
18:20 20.2 °C 9.8 °C 1010.4 hPa North 11.1 km/h 23.3 km/h 51% 0.0 mm 40 W/m2
18:25 20.2 °C 9.8 °C 1010.4 hPa North 12.2 km/h 27.0 km/h 51% 0.0 mm 41 W/m2
18:30 20.2 °C 10.1 °C 1010.4 hPa NNE 18.3 km/h 27.0 km/h 52% 0.0 mm 43 W/m2
18:35 20.1 °C 10.2 °C 1010.4 hPa NNE 12.2 km/h 27.0 km/h 53% 0.0 mm 30 W/m2
18:40 20.0 °C 10.2 °C 1010.4 hPa North 8.7 km/h 21.9 km/h 53% 0.0 mm 22 W/m2
18:46 20.0 °C 10.2 °C 1010.0 hPa NNE 13.4 km/h 28.0 km/h 53% 0.0 mm 14 W/m2
18:51 19.9 °C 10.3 °C 1010.0 hPa NNE 14.8 km/h 28.0 km/h 54% 0.0 mm 13 W/m2
18:56 19.9 °C 10.3 °C 1009.7 hPa NE 14.8 km/h 28.0 km/h 54% 0.0 mm 15 W/m2
19:01 19.9 °C 10.3 °C 1009.4 hPa NE 11.1 km/h 28.0 km/h 54% 0.0 mm 20 W/m2
19:06 19.8 °C 10.2 °C 1009.4 hPa NNE 11.1 km/h 24.5 km/h 54% 0.0 mm 15 W/m2
19:11 19.8 °C 10.2 °C 1009.4 hPa NNE 13.4 km/h 19.5 km/h 54% 0.0 mm 17 W/m2
19:16 19.7 °C 10.2 °C 1009.7 hPa NNE 9.7 km/h 19.5 km/h 54% 0.0 mm 15 W/m2
19:21 19.8 °C 10.2 °C 1009.7 hPa NNE 13.4 km/h 21.9 km/h 54% 0.0 mm 13 W/m2
19:26 19.8 °C 10.2 °C 1009.7 hPa NNE 9.7 km/h 21.9 km/h 54% 0.0 mm 10 W/m2
19:31 19.7 °C 10.4 °C 1009.7 hPa NNE 8.7 km/h 20.9 km/h 55% 0.0 mm 10 W/m2
19:36 19.7 °C 10.4 °C 1010.0 hPa NE 7.2 km/h 20.9 km/h 55% 0.0 mm 8 W/m2
19:41 19.7 °C 10.4 °C 1010.0 hPa NNE 7.2 km/h 21.9 km/h 55% 0.0 mm 5 W/m2
19:46 19.7 °C 10.4 °C 1010.0 hPa NNE 5.0 km/h 21.9 km/h 55% 0.0 mm 4 W/m2
19:51 19.6 °C 10.3 °C 1009.7 hPa NE 9.7 km/h 15.8 km/h 55% 0.0 mm 3 W/m2
19:56 19.6 °C 10.3 °C 1010.0 hPa NNE 15.8 km/h 21.9 km/h 55% 0.0 mm 2 W/m2
20:01 19.7 °C 10.4 °C 1009.7 hPa NNE 11.1 km/h 28.0 km/h 55% 0.0 mm 3 W/m2
20:06 19.6 °C 10.3 °C 1009.7 hPa NNE 9.7 km/h 28.0 km/h 55% 0.0 mm 6 W/m2
20:11 19.6 °C 10.3 °C 1009.7 hPa NE 7.2 km/h 23.3 km/h 55% 0.0 mm 7 W/m2
20:16 19.5 °C 10.2 °C 1009.0 hPa NE 9.7 km/h 33.1 km/h 55% 0.0 mm 4 W/m2
20:21 19.4 °C 10.1 °C 1009.0 hPa NNE 12.2 km/h 33.1 km/h 55% 0.0 mm 0 W/m2
20:26 19.4 °C 10.1 °C 1008.7 hPa NE 6.1 km/h 21.9 km/h 55% 0.0 mm 0 W/m2
20:32 19.4 °C 10.1 °C 1008.7 hPa NE 12.2 km/h 19.5 km/h 55% 0.0 mm 0 W/m2
20:37 19.3 °C 10.1 °C 1008.7 hPa NE 12.2 km/h 28.0 km/h 55% 0.0 mm 0 W/m2
20:42 19.3 °C 10.1 °C 1008.4 hPa NNE 17.2 km/h 28.0 km/h 55% 0.0 mm 0 W/m2
20:47 19.3 °C 10.3 °C 1008.4 hPa NNE 15.8 km/h 28.0 km/h 56% 0.0 mm 0 W/m2
20:52 19.2 °C 10.2 °C 1008.0 hPa NE 14.8 km/h 28.0 km/h 56% 0.0 mm 0 W/m2
20:57 19.1 °C 10.1 °C 1007.7 hPa NE 9.7 km/h 25.6 km/h 56% 0.0 mm 0 W/m2
21:02 19.1 °C 10.1 °C 1008.0 hPa NE 18.3 km/h 25.6 km/h 56% 0.0 mm 0 W/m2
21:07 19.2 °C 10.2 °C 1008.0 hPa NNE 9.7 km/h 36.7 km/h 56% 0.0 mm 0 W/m2
21:12 19.1 °C 10.4 °C 1007.7 hPa NNE 11.1 km/h 36.7 km/h 57% 0.0 mm 0 W/m2
21:17 19.0 °C 10.6 °C 1008.0 hPa NE 9.7 km/h 20.9 km/h 58% 0.0 mm 0 W/m2
21:22 18.9 °C 10.7 °C 1007.3 hPa NE 8.7 km/h 30.6 km/h 59% 0.0 mm 0 W/m2
21:27 18.8 °C 10.6 °C 1007.7 hPa NE 7.2 km/h 30.6 km/h 59% 0.0 mm 0 W/m2
21:32 18.9 °C 10.7 °C 1007.7 hPa NNE 17.2 km/h 25.6 km/h 59% 0.0 mm 0 W/m2
21:38 19.0 °C 10.3 °C 1007.7 hPa North 13.4 km/h 27.0 km/h 57% 0.0 mm 0 W/m2
21:43 19.0 °C 10.3 °C 1008.0 hPa North 15.8 km/h 33.1 km/h 57% 0.0 mm 0 W/m2
21:48 19.1 °C 10.4 °C 1008.0 hPa North 11.1 km/h 33.1 km/h 57% 0.0 mm 0 W/m2
21:53 19.1 °C 10.4 °C 1007.7 hPa NNE 21.9 km/h 31.7 km/h 57% 0.0 mm 0 W/m2
21:58 19.1 °C 10.4 °C 1008.0 hPa NNE 11.1 km/h 29.4 km/h 57% 0.0 mm 0 W/m2
22:03 19.1 °C 10.4 °C 1007.7 hPa North 12.2 km/h 39.3 km/h 57% 0.0 mm 0 W/m2
22:08 19.1 °C 10.4 °C 1007.7 hPa NNE 14.8 km/h 39.3 km/h 57% 0.0 mm 0 W/m2
22:13 19.1 °C 10.4 °C 1007.3 hPa NE 9.7 km/h 31.7 km/h 57% 0.0 mm 0 W/m2
22:18 19.0 °C 10.3 °C 1007.3 hPa NE 11.1 km/h 29.4 km/h 57% 0.0 mm 0 W/m2
22:23 18.9 °C 10.4 °C 1007.0 hPa NE 8.7 km/h 29.4 km/h 58% 0.0 mm 0 W/m2
22:28 18.9 °C 10.4 °C 1007.3 hPa NNE 12.2 km/h 24.5 km/h 58% 0.0 mm 0 W/m2
22:33 19.0 °C 10.3 °C 1007.3 hPa NE 17.2 km/h 41.7 km/h 57% 0.0 mm 0 W/m2
22:38 19.0 °C 10.1 °C 1007.3 hPa NE 9.7 km/h 41.7 km/h 56% 0.0 mm 0 W/m2
22:43 19.0 °C 10.1 °C 1007.3 hPa North 7.2 km/h 36.7 km/h 56% 0.0 mm 0 W/m2
22:48 19.0 °C 10.1 °C 1007.3 hPa NNE 12.2 km/h 21.9 km/h 56% 0.0 mm 0 W/m2
22:53 19.0 °C 10.1 °C 1007.0 hPa NE 11.1 km/h 21.9 km/h 56% 0.0 mm 0 W/m2
22:58 19.0 °C 10.1 °C 1007.0 hPa NNE 7.2 km/h 20.9 km/h 56% 0.0 mm 0 W/m2
23:03 19.0 °C 10.1 °C 1007.0 hPa NNE 9.7 km/h 24.5 km/h 56% 0.0 mm 0 W/m2
23:08 19.0 °C 10.1 °C 1006.7 hPa NNE 8.7 km/h 27.0 km/h 56% 0.0 mm 0 W/m2
23:13 19.0 °C 10.1 °C 1006.7 hPa NNE 17.2 km/h 28.0 km/h 56% 0.0 mm 0 W/m2
23:18 19.0 °C 10.1 °C 1006.7 hPa NNE 14.8 km/h 29.4 km/h 56% 0.0 mm 0 W/m2
23:23 19.0 °C 10.1 °C 1007.0 hPa NE 9.7 km/h 29.4 km/h 56% 0.0 mm 0 W/m2
23:28 19.0 °C 10.1 °C 1007.0 hPa NNE 15.8 km/h 29.4 km/h 56% 0.0 mm 0 W/m2
23:33 19.0 °C 10.1 °C 1006.7 hPa North 7.2 km/h 29.4 km/h 56% 0.0 mm 0 W/m2
23:38 18.9 °C 10.2 °C 1006.7 hPa NNE 7.2 km/h 24.5 km/h 57% 0.0 mm 0 W/m2
23:43 18.9 °C 10.2 °C 1006.7 hPa NNE 11.1 km/h 27.0 km/h 57% 0.0 mm 0 W/m2
23:48 18.8 °C 10.4 °C 1006.7 hPa NE 13.4 km/h 27.0 km/h 58% 0.0 mm 0 W/m2
23:53 18.7 °C 10.6 °C 1006.3 hPa NE 12.2 km/h 24.5 km/h 59% 0.0 mm 0 W/m2
23:58 18.5 °C 10.6 °C 1006.7 hPa NE 9.7 km/h 24.5 km/h 60% 0.0 mm 0 W/m2
Northern Hawkes Bay. New Zealand Historic Data
Compliments of Weather Underground - 2 mb